Time;durP1;ratioP1;P1;durP2;ratioP2;P2;SDS_P1;SDS_P2;PMS_P1;PMS_P2;Temp;Humidity;BMP_temperature;BMP_pressure;BME280_temperature;BME280_humidity;BME280_pressure;Samples;Min_cycle;Max_cycle;Signal;HPM_P1;HPM_P2
2022/12/08 00:01:24;;;;;;;3.28;2.20;;;22.60;38.00;;;;;;6113182;28;80604;-58
2022/12/08 00:04:25;;;;;;;3.40;2.10;;;22.60;38.00;;;;;;6101220;28;80930;-59
2022/12/08 00:10:45;;;;;;;3.47;2.22;;;22.60;37.90;;;;;;6114816;28;84062;-59
2022/12/08 00:13:45;;;;;;;5.03;2.70;;;22.60;38.00;;;;;;6119352;28;80999;-67
2022/12/08 00:16:46;;;;;;;2.58;2.10;;;22.60;37.90;;;;;;6099455;28;88097;-68
2022/12/08 00:19:46;;;;;;;5.28;2.38;;;22.60;37.90;;;;;;6104897;28;82463;-67
2022/12/08 00:22:47;;;;;;;3.40;2.55;;;22.60;37.90;;;;;;6101642;28;83159;-67
2022/12/08 00:25:47;;;;;;;3.63;2.10;;;22.60;37.90;;;;;;6101197;28;80451;-67
2022/12/08 00:28:48;;;;;;;2.90;2.03;;;22.60;37.90;;;;;;6118267;28;80511;-67
2022/12/08 00:31:48;;;;;;;2.05;1.83;;;22.60;37.90;;;;;;6104388;28;80603;-67
2022/12/08 00:34:49;;;;;;;2.85;2.08;;;22.60;37.90;;;;;;6114141;28;81831;-67
2022/12/08 00:37:49;;;;;;;2.63;2.05;;;22.60;38.00;;;;;;6110290;28;81345;-71
2022/12/08 00:40:50;;;;;;;2.20;1.95;;;22.60;38.00;;;;;;6121281;28;80432;-71
2022/12/08 00:43:50;;;;;;;3.58;2.20;;;22.60;38.00;;;;;;6113286;28;81566;-72
2022/12/08 00:46:50;;;;;;;2.88;2.05;;;22.60;38.10;;;;;;6102918;28;81782;-72
2022/12/08 00:49:51;;;;;;;3.28;1.85;;;22.60;38.10;;;;;;6110239;28;80944;-71
2022/12/08 00:52:51;;;;;;;2.78;1.95;;;22.60;38.10;;;;;;6111182;28;81791;-71
2022/12/08 00:55:52;;;;;;;2.58;1.90;;;22.60;38.10;;;;;;6124677;28;80758;-68
2022/12/08 00:58:53;;;;;;;2.78;2.13;;;22.50;38.10;;;;;;6120883;28;80905;-67
2022/12/08 01:01:53;;;;;;;2.95;1.90;;;22.50;38.10;;;;;;6126966;28;81094;-68
2022/12/08 01:04:54;;;;;;;2.63;1.92;;;22.60;38.20;;;;;;6122943;28;81189;-69
2022/12/08 01:07:54;;;;;;;2.80;2.17;;;22.60;38.20;;;;;;6116460;28;84493;-65
2022/12/08 01:10:55;;;;;;;3.72;2.03;;;22.60;38.20;;;;;;6124111;28;80550;-67
2022/12/08 01:13:55;;;;;;;2.20;2.00;;;22.60;38.20;;;;;;6122782;28;85349;-64
2022/12/08 01:16:56;;;;;;;2.08;1.70;;;22.60;38.10;;;;;;6129186;28;80855;-65
2022/12/08 01:19:56;;;;;;;2.30;2.00;;;22.50;38.20;;;;;;6105755;28;81282;-65
2022/12/08 01:22:57;;;;;;;3.47;2.13;;;22.60;38.10;;;;;;6112271;28;81321;-67
2022/12/08 01:25:57;;;;;;;2.38;1.80;;;22.60;38.30;;;;;;6095598;28;80268;-67
2022/12/08 01:28:58;;;;;;;1.75;1.63;;;22.60;38.20;;;;;;6103431;28;81620;-67
2022/12/08 01:31:59;;;;;;;1.98;1.63;;;22.60;38.10;;;;;;6102530;28;80751;-69
2022/12/08 01:35:00;;;;;;;2.00;1.70;;;22.50;38.00;;;;;;6101215;28;81020;-69
2022/12/08 01:38:01;;;;;;;3.30;2.00;;;22.50;38.00;;;;;;6100753;28;80696;-69
2022/12/08 01:41:01;;;;;;;3.50;1.90;;;22.50;38.00;;;;;;6111674;28;80889;-69
2022/12/08 01:44:02;;;;;;;2.90;2.10;;;22.50;38.10;;;;;;6102377;28;83915;-58
2022/12/08 01:47:02;;;;;;;3.13;2.10;;;22.50;38.00;;;;;;6104125;28;80937;-58
2022/12/08 01:50:02;;;;;;;2.10;1.70;;;22.50;38.00;;;;;;6093997;28;85324;-58
2022/12/08 01:53:03;;;;;;;2.20;1.90;;;22.50;38.00;;;;;;6098257;28;80953;-57
2022/12/08 01:56:03;;;;;;;2.50;1.95;;;22.50;38.00;;;;;;6109308;28;81072;-57
2022/12/08 01:59:04;;;;;;;2.67;1.95;;;22.50;38.00;;;;;;6106774;28;85652;-59
2022/12/08 02:02:04;;;;;;;2.40;1.83;;;22.50;38.00;;;;;;6100618;28;80752;-72
2022/12/08 02:05:05;;;;;;;2.53;1.92;;;22.50;38.10;;;;;;6099295;28;82895;-71
2022/12/08 02:08:05;;;;;;;3.03;1.85;;;22.50;38.00;;;;;;6111975;28;80793;-72
2022/12/08 02:11:06;;;;;;;1.95;1.70;;;22.50;38.10;;;;;;6127963;28;80363;-71
2022/12/08 02:14:07;;;;;;;2.45;1.92;;;22.50;38.00;;;;;;6115499;28;80410;-71
2022/12/08 02:17:07;;;;;;;2.10;1.85;;;22.50;38.10;;;;;;6107364;28;80546;-70
2022/12/08 02:20:08;;;;;;;1.95;1.67;;;22.50;38.10;;;;;;6111197;28;82765;-70
2022/12/08 02:23:08;;;;;;;1.63;1.50;;;22.50;38.10;;;;;;6106515;28;80767;-70
2022/12/08 02:26:09;;;;;;;1.60;1.50;;;22.40;38.00;;;;;;6105578;28;81920;-70
2022/12/08 02:29:09;;;;;;;1.73;1.40;;;22.50;38.10;;;;;;6115991;28;80508;-70
2022/12/08 02:32:10;;;;;;;2.25;1.80;;;22.50;38.10;;;;;;6113510;28;80572;-70
2022/12/08 02:35:10;;;;;;;1.90;1.70;;;22.50;38.10;;;;;;6117408;28;81364;-69
2022/12/08 02:38:11;;;;;;;2.10;1.90;;;22.40;38.00;;;;;;6116408;28;81055;-68
2022/12/08 02:41:11;;;;;;;1.60;1.50;;;22.50;38.10;;;;;;6104855;28;80145;-59
2022/12/08 02:44:12;;;;;;;2.08;1.60;;;22.40;38.10;;;;;;6115342;28;84502;-58
2022/12/08 02:47:12;;;;;;;2.70;1.73;;;22.40;38.00;;;;;;6117718;28;82543;-58
2022/12/08 02:50:13;;;;;;;2.78;2.15;;;22.50;38.10;;;;;;6115571;28;83587;-59
2022/12/08 02:53:13;;;;;;;2.42;1.55;;;22.40;37.80;;;;;;6107162;28;80376;-58
2022/12/08 02:56:14;;;;;;;1.98;1.77;;;22.40;37.90;;;;;;6117571;28;81980;-57
2022/12/08 02:59:15;;;;;;;2.35;1.67;;;22.40;37.80;;;;;;6107630;28;80239;-58
2022/12/08 03:02:15;;;;;;;2.45;1.90;;;22.40;37.90;;;;;;6105228;28;80738;-57
2022/12/08 03:05:16;;;;;;;1.52;1.42;;;22.40;37.80;;;;;;6105605;28;80896;-56
2022/12/08 03:08:16;;;;;;;1.70;1.60;;;22.40;37.90;;;;;;6110837;28;81069;-58
2022/12/08 03:11:19;;;;;;;1.80;1.70;;;22.40;37.80;;;;;;6108382;28;83951;-58
2022/12/08 03:14:19;;;;;;;2.25;1.70;;;22.40;37.90;;;;;;6122695;28;80939;-57
2022/12/08 03:17:20;;;;;;;2.05;1.85;;;22.40;37.80;;;;;;6116732;28;80251;-64
2022/12/08 03:20:20;;;;;;;1.52;1.42;;;22.40;37.80;;;;;;6118190;28;80221;-65
2022/12/08 03:23:21;;;;;;;1.67;1.30;;;22.40;37.60;;;;;;6102571;28;80474;-65
2022/12/08 03:26:21;;;;;;;1.70;1.60;;;22.40;37.60;;;;;;6104461;28;82854;-66
2022/12/08 03:29:22;;;;;;;2.38;1.65;;;22.40;37.50;;;;;;6111938;28;80399;-65
2022/12/08 03:32:22;;;;;;;2.65;1.92;;;22.40;37.50;;;;;;6104351;28;82737;-64
2022/12/08 03:35:23;;;;;;;2.85;2.17;;;22.40;37.50;;;;;;6103461;28;80629;-66
2022/12/08 03:38:23;;;;;;;1.52;1.40;;;22.40;37.50;;;;;;6101419;28;80865;-65
2022/12/08 03:41:24;;;;;;;2.42;1.77;;;22.40;37.50;;;;;;6106341;28;80409;-65
2022/12/08 03:44:25;;;;;;;2.38;1.65;;;22.40;37.60;;;;;;6105407;28;80790;-68
2022/12/08 03:47:25;;;;;;;1.77;1.63;;;22.40;37.40;;;;;;6109782;28;80755;-68
2022/12/08 03:50:26;;;;;;;1.52;1.42;;;22.40;38.10;;;;;;6112557;28;80915;-66
2022/12/08 03:53:26;;;;;;;1.98;1.70;;;22.40;37.30;;;;;;6104631;28;80977;-59
2022/12/08 03:56:27;;;;;;;1.88;1.75;;;22.30;37.40;;;;;;6123643;28;80816;-59
2022/12/08 03:59:27;;;;;;;1.48;1.38;;;22.40;37.50;;;;;;6124621;28;80557;-59
2022/12/08 04:02:28;;;;;;;2.13;1.50;;;22.40;37.50;;;;;;6121567;28;81145;-59
2022/12/08 04:05:28;;;;;;;1.67;1.55;;;22.40;37.60;;;;;;6123524;28;83766;-60
2022/12/08 04:08:29;;;;;;;2.10;1.58;;;22.40;37.60;;;;;;6127218;28;88129;-60
2022/12/08 04:11:29;;;;;;;2.65;1.60;;;22.40;37.50;;;;;;6125741;28;83880;-58
2022/12/08 04:14:30;;;;;;;1.70;1.50;;;22.30;37.60;;;;;;6126420;28;80536;-58
2022/12/08 04:17:30;;;;;;;1.70;1.60;;;22.40;37.70;;;;;;6122172;28;82375;-58
2022/12/08 04:20:31;;;;;;;1.98;1.80;;;22.40;37.10;;;;;;6106640;28;80653;-58
2022/12/08 04:23:31;;;;;;;1.95;1.45;;;22.40;36.80;;;;;;6102768;28;81736;-59
2022/12/08 04:26:32;;;;;;;1.77;1.60;;;22.50;36.90;;;;;;6119368;28;80435;-59
2022/12/08 04:29:32;;;;;;;1.85;1.50;;;22.50;36.80;;;;;;6122340;28;80314;-67
2022/12/08 04:32:33;;;;;;;1.60;1.50;;;22.60;36.90;;;;;;6117997;28;80765;-70
2022/12/08 04:35:33;;;;;;;2.13;1.77;;;22.60;36.90;;;;;;6104763;28;85462;-67
2022/12/08 04:38:34;;;;;;;1.63;1.50;;;22.60;36.90;;;;;;6114465;28;82099;-73
2022/12/08 04:41:34;;;;;;;4.63;1.60;;;22.60;37.00;;;;;;6106417;28;81056;-73
2022/12/08 04:44:35;;;;;;;1.40;1.30;;;22.70;37.60;;;;;;6116185;28;81989;-75
2022/12/08 04:47:35;;;;;;;4.63;1.30;;;22.80;37.80;;;;;;6120559;28;80100;-60
2022/12/08 04:50:36;;;;;;;3.47;1.30;;;22.80;37.90;;;;;;6105682;28;80754;-60
2022/12/08 04:53:36;;;;;;;4.25;1.65;;;22.90;37.90;;;;;;6104643;28;80629;-60
2022/12/08 04:56:36;;;;;;;2.30;1.80;;;22.90;38.00;;;;;;6116758;28;81510;-61
2022/12/08 04:59:37;;;;;;;4.20;1.65;;;23.00;37.80;;;;;;6109860;28;80781;-65
2022/12/08 05:02:37;;;;;;;2.50;1.60;;;23.00;37.90;;;;;;6110231;28;80187;-62
2022/12/08 05:05:38;;;;;;;4.28;1.73;;;23.00;37.80;;;;;;6103958;28;86706;-66
2022/12/08 05:08:38;;;;;;;2.17;1.48;;;23.00;38.00;;;;;;6119414;28;80398;-69
2022/12/08 05:11:40;;;;;;;2.03;1.40;;;23.00;37.90;;;;;;6106882;28;80543;-67
2022/12/08 05:14:41;;;;;;;1.92;1.40;;;23.10;37.80;;;;;;6105966;28;81483;-65
2022/12/08 05:17:41;;;;;;;4.72;1.20;;;23.10;37.50;;;;;;6105852;28;81011;-66
2022/12/08 05:20:42;;;;;;;2.75;1.70;;;23.10;37.40;;;;;;6103508;28;81018;-64
2022/12/08 05:23:42;;;;;;;2.95;1.60;;;23.10;37.20;;;;;;6113238;28;85613;-61
2022/12/08 05:26:43;;;;;;;7.57;1.67;;;23.10;37.40;;;;;;6103055;28;82722;-67
2022/12/08 05:29:44;;;;;;;2.67;1.60;;;23.10;37.60;;;;;;6116411;28;80343;-70
2022/12/08 05:32:44;;;;;;;3.42;1.83;;;23.20;37.30;;;;;;6108880;28;81016;-67
2022/12/08 05:35:44;;;;;;;2.22;1.50;;;23.20;37.20;;;;;;6099754;28;80766;-73
2022/12/08 05:38:45;;;;;;;4.75;1.90;;;23.20;37.00;;;;;;6099784;28;81385;-67
2022/12/08 05:41:45;;;;;;;3.70;1.88;;;23.20;37.00;;;;;;6099306;28;80500;-73
2022/12/08 05:44:46;;;;;;;2.58;1.70;;;23.20;37.10;;;;;;6121548;28;80702;-63
2022/12/08 05:47:46;;;;;;;3.13;1.90;;;23.20;37.00;;;;;;6118748;28;81759;-66
2022/12/08 05:50:47;;;;;;;2.42;1.90;;;23.20;37.00;;;;;;6119508;28;80699;-65
2022/12/08 05:53:48;;;;;;;3.22;1.98;;;23.20;37.00;;;;;;6122660;28;80949;-67
2022/12/08 05:56:48;;;;;;;2.80;1.70;;;23.20;37.10;;;;;;6109993;28;80778;-67
2022/12/08 05:59:49;;;;;;;3.40;1.90;;;23.10;37.20;;;;;;6118769;28;81314;-66
2022/12/08 06:02:49;;;;;;;3.63;1.88;;;23.10;37.20;;;;;;6119906;28;83051;-65
2022/12/08 06:05:50;;;;;;;3.20;1.75;;;23.10;37.10;;;;;;6122160;28;82919;-65
2022/12/08 06:08:50;;;;;;;7.93;2.47;;;23.10;37.40;;;;;;6122281;28;85763;-66
2022/12/08 06:11:51;;;;;;;6.13;2.42;;;23.10;37.10;;;;;;6133263;28;81598;-65
2022/12/08 06:14:51;;;;;;;2.63;1.88;;;23.10;36.90;;;;;;6131614;28;82410;-65
2022/12/08 06:17:52;;;;;;;9.52;2.25;;;23.10;36.90;;;;;;6122639;28;80567;-66
2022/12/08 06:20:52;;;;;;;3.60;2.30;;;23.00;36.50;;;;;;6102830;28;80865;-66
2022/12/08 06:23:53;;;;;;;2.75;2.13;;;23.00;36.60;;;;;;6097984;28;83416;-66
2022/12/08 06:26:53;;;;;;;4.13;2.40;;;23.00;36.70;;;;;;6104726;28;86928;-64
2022/12/08 06:29:54;;;;;;;2.88;2.03;;;23.00;36.60;;;;;;6125605;28;80961;-67
2022/12/08 06:32:54;;;;;;;4.95;2.72;;;23.00;36.60;;;;;;6123974;28;85386;-66
2022/12/08 06:35:55;;;;;;;4.45;2.38;;;22.90;36.40;;;;;;6107361;28;83494;-63
2022/12/08 06:38:55;;;;;;;3.60;2.40;;;22.90;36.60;;;;;;6107977;28;83581;-65
2022/12/08 06:45:15;;;;;;;4.30;2.75;;;22.90;36.50;;;;;;6116110;28;80078;-67
2022/12/08 06:48:16;;;;;;;4.20;2.50;;;22.80;36.50;;;;;;6115028;28;80527;-63
2022/12/08 06:51:16;;;;;;;3.80;2.50;;;22.80;36.80;;;;;;6103185;28;81365;-65
2022/12/08 06:54:17;;;;;;;6.13;2.80;;;22.80;37.20;;;;;;6101802;28;80523;-65
2022/12/08 06:57:17;;;;;;;3.67;2.72;;;22.80;37.00;;;;;;6092923;28;82523;-62
2022/12/08 07:00:18;;;;;;;7.05;2.70;;;22.80;37.00;;;;;;6108132;28;82312;-61
2022/12/08 07:03:18;;;;;;;5.63;2.97;;;22.80;37.40;;;;;;6107500;28;80631;-59
2022/12/08 07:06:19;;;;;;;7.22;2.40;;;22.70;36.80;;;;;;6094786;28;88222;-65
2022/12/08 07:09:20;;;;;;;4.43;2.72;;;22.70;37.10;;;;;;6106238;28;80413;-60
2022/12/08 07:12:20;;;;;;;5.75;2.78;;;22.70;37.10;;;;;;6114236;28;86847;-62
2022/12/08 07:15:21;;;;;;;4.13;2.83;;;22.70;37.00;;;;;;6124808;28;81580;-60
2022/12/08 07:18:21;;;;;;;4.22;2.70;;;22.70;37.00;;;;;;6115604;28;80640;-61
2022/12/08 07:21:22;;;;;;;4.03;2.83;;;22.70;37.00;;;;;;6123239;28;81875;-58
2022/12/08 07:24:22;;;;;;;5.25;2.70;;;22.70;37.10;;;;;;6125389;28;83798;-64
2022/12/08 07:27:23;;;;;;;5.00;2.30;;;22.80;37.20;;;;;;6125719;28;81640;-61
2022/12/08 07:30:23;;;;;;;8.90;2.92;;;22.80;37.20;;;;;;6122926;28;86227;-60
2022/12/08 07:33:24;;;;;;;8.70;3.15;;;22.80;37.20;;;;;;6116311;28;85981;-60
2022/12/08 07:36:24;;;;;;;5.90;2.92;;;22.80;37.10;;;;;;6105536;28;80910;-59
2022/12/08 07:39:25;;;;;;;5.88;2.85;;;22.80;37.10;;;;;;6122834;28;80253;-59
2022/12/08 07:42:25;;;;;;;5.47;2.90;;;22.80;37.10;;;;;;6108408;28;82787;-59
2022/12/08 07:45:26;;;;;;;7.18;3.17;;;22.80;37.20;;;;;;6116834;28;86489;-58
2022/12/08 07:48:26;;;;;;;4.50;2.95;;;22.80;37.20;;;;;;6131152;28;81254;-61
2022/12/08 07:51:27;;;;;;;4.10;2.55;;;22.80;37.20;;;;;;6121027;28;85907;-61
2022/12/08 07:54:27;;;;;;;9.35;3.03;;;22.80;37.00;;;;;;6115978;28;81190;-61
2022/12/08 07:57:28;;;;;;;6.82;3.10;;;22.70;37.20;;;;;;6115402;28;80776;-60
2022/12/08 08:00:28;;;;;;;3.70;2.85;;;22.70;37.20;;;;;;6106638;28;80799;-63
2022/12/08 08:03:29;;;;;;;4.70;2.97;;;22.70;37.60;;;;;;6107883;28;81889;-60
2022/12/08 08:06:29;;;;;;;5.55;3.20;;;22.80;37.40;;;;;;6123917;28;80720;-60
2022/12/08 08:09:30;;;;;;;5.93;2.80;;;22.70;37.20;;;;;;6116021;28;82088;-62
2022/12/08 08:12:30;;;;;;;4.82;2.75;;;22.80;37.50;;;;;;6119784;28;80679;-63
2022/12/08 08:15:31;;;;;;;4.32;2.70;;;22.70;37.30;;;;;;6118978;28;80560;-63
2022/12/08 08:18:31;;;;;;;4.13;2.95;;;22.70;37.20;;;;;;6107436;28;81719;-66
2022/12/08 08:21:32;;;;;;;5.40;2.78;;;22.70;37.20;;;;;;6116349;28;80659;-69
2022/12/08 08:24:32;;;;;;;6.40;2.90;;;22.80;37.20;;;;;;6133935;28;80365;-62
2022/12/08 08:27:33;;;;;;;7.10;3.00;;;22.70;37.30;;;;;;6132231;28;85958;-65
2022/12/08 08:30:33;;;;;;;10.70;3.13;;;22.80;37.70;;;;;;6115681;28;81251;-64
2022/12/08 08:33:34;;;;;;;5.90;2.83;;;22.80;37.60;;;;;;6118381;28;83181;-65
2022/12/08 08:36:34;;;;;;;4.70;2.90;;;22.80;36.70;;;;;;6101162;28;80547;-64
2022/12/08 08:39:35;;;;;;;5.03;3.20;;;22.80;36.40;;;;;;6125852;28;80702;-64
2022/12/08 08:42:35;;;;;;;4.60;3.08;;;22.90;36.50;;;;;;6119213;28;80432;-64
2022/12/08 08:45:36;;;;;;;5.75;3.58;;;22.90;36.30;;;;;;6110081;28;81217;-69
2022/12/08 08:48:36;;;;;;;4.00;2.95;;;22.90;36.20;;;;;;6109944;28;80939;-69
2022/12/08 08:51:37;;;;;;;8.10;3.85;;;23.00;36.20;;;;;;6127962;28;84383;-70
2022/12/08 08:54:38;;;;;;;5.30;3.40;;;23.00;36.00;;;;;;6124362;28;81522;-70
2022/12/08 08:57:38;;;;;;;5.07;3.63;;;23.00;35.90;;;;;;6120927;28;80781;-67
2022/12/08 09:00:39;;;;;;;5.90;3.50;;;23.00;35.90;;;;;;6114438;28;81013;-67
2022/12/08 09:03:39;;;;;;;5.28;3.85;;;23.00;35.90;;;;;;6107057;28;80780;-68
2022/12/08 09:06:42;;;;;;;6.80;4.35;;;23.10;35.80;;;;;;6124021;28;80343;-67
2022/12/08 09:09:42;;;;;;;7.95;3.97;;;23.10;35.80;;;;;;6124755;28;84918;-68
2022/12/08 09:12:43;;;;;;;8.85;4.00;;;23.10;35.80;;;;;;6119345;28;80400;-68
2022/12/08 09:15:43;;;;;;;7.57;4.25;;;23.20;35.90;;;;;;6139107;28;80122;-69
2022/12/08 09:18:44;;;;;;;8.25;4.40;;;23.20;35.80;;;;;;6119703;28;80831;-68
2022/12/08 09:21:44;;;;;;;7.65;4.25;;;23.10;35.80;;;;;;6112293;28;80630;-69
2022/12/08 09:24:45;;;;;;;6.03;4.28;;;23.20;35.80;;;;;;6103336;28;83379;-64
2022/12/08 09:27:45;;;;;;;5.65;3.95;;;23.20;35.70;;;;;;6126450;28;81129;-65
2022/12/08 09:30:46;;;;;;;6.05;3.97;;;23.20;35.70;;;;;;6113531;28;81341;-65
2022/12/08 09:33:46;;;;;;;6.97;4.43;;;23.20;35.90;;;;;;6108065;28;80823;-64
2022/12/08 09:36:47;;;;;;;6.45;3.88;;;23.20;35.70;;;;;;6102182;28;81738;-63
2022/12/08 09:39:47;;;;;;;6.03;3.85;;;23.20;35.60;;;;;;6105868;28;80373;-64
2022/12/08 09:42:48;;;;;;;6.38;3.95;;;23.20;35.60;;;;;;6109565;28;80920;-64
2022/12/08 09:45:50;;;;;;;5.28;3.53;;;23.20;35.50;;;;;;6106526;28;81319;-64
2022/12/08 09:48:54;;;;;;;5.70;3.85;;;23.20;35.60;;;;;;6112424;28;84247;-63
2022/12/08 09:51:54;;;;;;;6.20;3.50;;;23.20;35.60;;;;;;6112422;28;81017;-64
2022/12/08 09:54:55;;;;;;;5.63;3.75;;;23.20;35.60;;;;;;6118095;28;81086;-64
2022/12/08 09:57:55;;;;;;;6.32;3.80;;;23.10;35.60;;;;;;6120398;28;80202;-65
2022/12/08 10:00:56;;;;;;;6.05;3.70;;;23.20;35.50;;;;;;6110001;28;80824;-64
2022/12/08 10:03:57;;;;;;;6.47;3.80;;;23.20;35.40;;;;;;6098691;28;84225;-64
2022/12/08 10:06:57;;;;;;;6.97;3.72;;;23.10;35.20;;;;;;6104776;28;80064;-64
2022/12/08 10:09:58;;;;;;;5.28;3.72;;;23.10;35.30;;;;;;6107117;28;84936;-65
2022/12/08 10:12:58;;;;;;;5.78;3.90;;;23.10;35.30;;;;;;6113279;28;80561;-64
2022/12/08 10:15:59;;;;;;;6.13;3.83;;;23.10;35.50;;;;;;6108429;28;80276;-65
2022/12/08 10:18:59;;;;;;;5.28;3.60;;;23.10;35.60;;;;;;6110310;28;80550;-61
2022/12/08 10:22:00;;;;;;;6.65;3.85;;;23.00;35.60;;;;;;6104021;28;81067;-62
2022/12/08 10:25:00;;;;;;;6.22;3.85;;;23.00;35.60;;;;;;6109436;28;84260;-62
2022/12/08 10:28:01;;;;;;;6.97;3.85;;;23.00;35.90;;;;;;6104976;28;81733;-61
2022/12/08 10:31:01;;;;;;;5.72;3.75;;;23.00;35.70;;;;;;6118948;28;80587;-58
2022/12/08 10:34:02;;;;;;;4.75;3.17;;;22.90;36.10;;;;;;6117031;28;80619;-60
2022/12/08 10:37:02;;;;;;;5.35;3.28;;;22.90;35.80;;;;;;6117315;28;80589;-69
2022/12/08 10:40:03;;;;;;;5.28;3.78;;;22.90;35.70;;;;;;6115483;28;83688;-61
2022/12/08 10:43:05;;;;;;;6.78;4.07;;;22.90;36.10;;;;;;6129108;28;80636;-61
2022/12/08 10:46:06;;;;;;;4.50;3.70;;;22.90;36.00;;;;;;6129292;28;80811;-66
2022/12/08 10:49:06;;;;;;;5.60;3.70;;;22.90;36.00;;;;;;6137248;28;81371;-67
2022/12/08 10:52:07;;;;;;;5.00;3.10;;;22.80;36.30;;;;;;6119771;28;80816;-66
2022/12/08 10:55:07;;;;;;;5.93;3.47;;;22.80;36.40;;;;;;6106129;28;80405;-66
2022/12/08 10:58:08;;;;;;;5.55;3.38;;;22.80;36.50;;;;;;6106344;28;80955;-70
2022/12/08 11:01:08;;;;;;;4.63;3.38;;;22.80;36.50;;;;;;6111606;28;84076;-70
2022/12/08 11:04:09;;;;;;;6.22;3.83;;;22.80;36.40;;;;;;6102142;28;81141;-74
2022/12/08 11:07:12;;;;;;;5.07;3.58;;;22.80;36.70;;;;;;6112326;28;80990;-70
2022/12/08 11:10:13;;;;;;;6.40;3.42;;;22.80;36.70;;;;;;6110821;28;80947;-69
2022/12/08 11:13:13;;;;;;;6.43;3.63;;;22.80;37.10;;;;;;6110744;28;86564;-64
2022/12/08 11:16:14;;;;;;;4.32;3.38;;;22.80;38.00;;;;;;6104651;28;81938;-66
2022/12/08 11:19:14;;;;;;;7.60;3.30;;;22.80;38.20;;;;;;6110738;28;80987;-66
2022/12/08 11:22:15;;;;;;;6.18;3.80;;;22.80;38.40;;;;;;6106352;28;83948;-65
2022/12/08 11:25:15;;;;;;;8.80;3.78;;;22.80;39.80;;;;;;6105740;28;80933;-66
2022/12/08 11:28:16;;;;;;;5.57;3.47;;;22.80;40.00;;;;;;6110115;28;83237;-66
2022/12/08 11:31:16;;;;;;;9.15;3.10;;;22.80;40.20;;;;;;6108234;28;80126;-63
2022/12/08 11:34:17;;;;;;;6.15;3.00;;;22.80;39.80;;;;;;6132657;28;80737;-66
2022/12/08 11:37:17;;;;;;;5.18;3.28;;;22.80;39.70;;;;;;6121526;28;80603;-66
2022/12/08 11:40:18;;;;;;;3.65;3.00;;;22.80;39.70;;;;;;6118998;28;81635;-67
2022/12/08 11:43:18;;;;;;;9.10;3.22;;;22.80;39.20;;;;;;6129604;28;80553;-65
2022/12/08 11:46:19;;;;;;;8.45;3.22;;;22.80;39.10;;;;;;6139772;28;82978;-66
2022/12/08 11:49:19;;;;;;;6.43;3.78;;;22.80;39.10;;;;;;6106446;28;81080;-74
2022/12/08 11:52:20;;;;;;;6.65;3.30;;;22.70;39.10;;;;;;6107042;28;81213;-71
2022/12/08 11:55:20;;;;;;;6.45;3.28;;;22.70;39.00;;;;;;6104176;28;80423;-73
2022/12/08 11:58:21;;;;;;;8.98;3.78;;;22.70;38.80;;;;;;6104847;28;81416;-70
2022/12/08 12:01:21;;;;;;;7.35;3.40;;;22.70;38.70;;;;;;6127309;28;80502;-61
2022/12/08 12:04:22;;;;;;;6.60;3.55;;;22.70;38.90;;;;;;6124206;28;82526;-68
2022/12/08 12:07:22;;;;;;;7.15;3.72;;;22.60;39.40;;;;;;6117994;28;80700;-67
2022/12/08 12:10:23;;;;;;;6.93;4.30;;;22.60;40.00;;;;;;6118477;28;87594;-71
2022/12/08 12:13:23;;;;;;;6.25;4.10;;;22.60;40.10;;;;;;6125728;28;86555;-68
2022/12/08 12:16:24;;;;;;;6.35;3.13;;;22.60;40.60;;;;;;6134132;28;80268;-68
2022/12/08 12:19:24;;;;;;;8.50;4.13;;;22.60;40.70;;;;;;6108247;28;81608;-69
2022/12/08 12:22:25;;;;;;;5.70;3.83;;;22.60;41.00;;;;;;6111005;28;80830;-67
2022/12/08 12:25:25;;;;;;;6.63;3.63;;;22.60;41.70;;;;;;6104820;28;80865;-69
2022/12/08 12:28:26;;;;;;;156.52;32.70;;;22.60;42.30;;;;;;6102654;28;80263;-68
2022/12/08 12:31:26;;;;;;;363.30;78.20;;;22.60;42.90;;;;;;6097797;28;83434;-68
2022/12/08 12:34:27;;;;;;;217.05;47.00;;;22.60;44.00;;;;;;6102202;28;83586;-68
2022/12/08 12:37:27;;;;;;;169.10;38.55;;;22.60;44.90;;;;;;6118139;28;85718;-68
2022/12/08 12:40:28;;;;;;;163.90;35.17;;;22.60;45.80;;;;;;6117049;28;88674;-67
2022/12/08 12:43:28;;;;;;;152.15;35.33;;;22.70;47.60;;;;;;6112238;28;83328;-67
2022/12/08 12:46:29;;;;;;;135.70;33.53;;;22.80;48.80;;;;;;6123344;28;83168;-68
2022/12/08 12:49:29;;;;;;;149.38;34.88;;;22.90;48.30;;;;;;6115678;28;84168;-68
2022/12/08 12:52:30;;;;;;;128.93;31.88;;;23.00;48.50;;;;;;6109691;28;83398;-70
2022/12/08 12:55:30;;;;;;;113.38;26.88;;;23.00;48.30;;;;;;6104092;28;83668;-66
2022/12/08 12:58:31;;;;;;;98.80;24.83;;;23.00;47.50;;;;;;6099428;28;83502;-69
2022/12/08 13:01:31;;;;;;;95.25;24.50;;;23.00;47.40;;;;;;6107613;28;83343;-70
2022/12/08 13:04:32;;;;;;;85.53;24.38;;;23.10;47.10;;;;;;6096513;28;83422;-62
2022/12/08 13:07:32;;;;;;;86.00;21.40;;;23.10;46.90;;;;;;6095020;28;85831;-61
2022/12/08 13:10:33;;;;;;;82.05;22.45;;;23.10;46.70;;;;;;6098351;28;84253;-61
2022/12/08 13:13:33;;;;;;;74.65;19.70;;;23.10;46.50;;;;;;6109044;28;89533;-62
2022/12/08 13:16:34;;;;;;;79.32;19.85;;;23.10;47.00;;;;;;6116717;28;83784;-60
2022/12/08 13:19:34;;;;;;;64.53;18.02;;;23.10;47.70;;;;;;6102738;28;88159;-60
2022/12/08 13:22:35;;;;;;;70.93;19.35;;;23.10;48.10;;;;;;6124148;28;83185;-61
2022/12/08 13:25:35;;;;;;;57.28;16.77;;;23.10;48.20;;;;;;6109748;28;91498;-59
2022/12/08 13:28:36;;;;;;;53.40;16.40;;;23.10;49.00;;;;;;6111899;28;85624;-60
2022/12/08 13:31:37;;;;;;;56.13;15.82;;;23.10;49.50;;;;;;6114835;28;85991;-63
2022/12/08 13:34:38;;;;;;;49.13;14.70;;;23.10;49.60;;;;;;6102849;28;87276;-62
2022/12/08 13:37:38;;;;;;;40.45;13.98;;;23.20;49.60;;;;;;6115621;28;83684;-62
2022/12/08 13:40:39;;;;;;;43.50;11.98;;;23.20;50.00;;;;;;6116437;28;89063;-74
2022/12/08 13:43:39;;;;;;;36.60;12.65;;;23.20;50.10;;;;;;6126328;28;83753;-73
2022/12/08 13:46:40;;;;;;;46.47;13.15;;;23.20;50.20;;;;;;6116043;28;83527;-78
2022/12/08 13:49:41;;;;;;;44.35;12.50;;;23.20;50.40;;;;;;6122582;28;86358;-68
2022/12/08 13:52:42;;;;;;;32.00;9.48;;;23.20;50.40;;;;;;6112878;28;83703;-73
2022/12/08 13:55:42;;;;;;;47.53;12.25;;;23.20;50.60;;;;;;6114253;28;82345;-65
2022/12/08 13:58:43;;;;;;;43.13;11.63;;;23.20;50.80;;;;;;6090908;28;83815;-61
2022/12/08 14:01:45;;;;;;;32.10;10.50;;;23.20;50.40;;;;;;5538493;28;87432;-59
2022/12/08 14:04:47;;;;;;;27.45;9.93;;;23.20;50.40;;;;;;5464023;28;86243;-59
2022/12/08 14:07:47;;;;;;;35.45;10.35;;;23.30;50.70;;;;;;5446515;28;85429;-59
2022/12/08 14:10:48;;;;;;;22.23;9.00;;;23.40;50.50;;;;;;5450970;28;86043;-60
2022/12/08 14:13:50;;;;;;;31.77;10.05;;;23.50;50.10;;;;;;5458400;28;85762;-61
2022/12/08 14:16:51;;;;;;;27.55;9.07;;;23.50;50.40;;;;;;5462783;28;86450;-75
2022/12/08 14:19:55;;;;;;;29.15;9.27;;;23.50;50.50;;;;;;5474230;28;85714;-63
2022/12/08 14:23:03;;;;;;;21.42;7.65;;;23.50;50.80;;;;;;5458448;28;85332;-73
2022/12/08 14:26:05;;;;;;;21.77;7.70;;;23.60;50.60;;;;;;5451774;28;88558;-70
2022/12/08 14:29:06;;;;;;;27.33;7.68;;;23.60;50.50;;;;;;5447363;28;84520;-67
2022/12/08 14:32:09;;;;;;;22.27;7.80;;;23.60;50.20;;;;;;5435831;28;87459;-66
2022/12/08 14:35:11;;;;;;;20.30;6.70;;;23.60;50.10;;;;;;5441846;28;83497;-68
2022/12/08 14:38:12;;;;;;;19.13;7.40;;;23.60;49.70;;;;;;5446982;28;84171;-65
2022/12/08 14:41:13;;;;;;;22.08;7.05;;;23.60;49.80;;;;;;5439555;28;83110;-69
2022/12/08 14:44:14;;;;;;;17.15;7.57;;;23.60;49.60;;;;;;5433850;28;89104;-65
2022/12/08 14:47:15;;;;;;;15.50;6.57;;;23.60;49.70;;;;;;5454324;28;84598;-66
2022/12/08 14:50:16;;;;;;;16.13;7.00;;;23.60;49.30;;;;;;5439454;28;83243;-65
2022/12/08 14:53:17;;;;;;;18.55;7.07;;;23.60;49.20;;;;;;5641889;28;84668;-60
2022/12/08 14:56:17;;;;;;;14.80;6.70;;;23.60;49.10;;;;;;6101244;28;82621;-66
2022/12/08 14:59:18;;;;;;;15.05;6.20;;;23.60;49.00;;;;;;6067408;28;84438;-65
2022/12/08 15:02:18;;;;;;;14.48;6.57;;;23.60;49.40;;;;;;6100700;28;80583;-62
2022/12/08 15:05:19;;;;;;;17.13;6.53;;;23.50;49.10;;;;;;6101866;28;80888;-69
2022/12/08 15:08:19;;;;;;;12.98;5.80;;;23.50;48.80;;;;;;6106023;28;80880;-68
2022/12/08 15:11:20;;;;;;;13.80;5.95;;;23.40;49.20;;;;;;6102863;28;80426;-66
2022/12/08 15:14:20;;;;;;;19.20;5.28;;;23.40;49.40;;;;;;6100742;28;81471;-64
2022/12/08 15:17:21;;;;;;;15.55;5.88;;;23.30;49.70;;;;;;6088348;28;80811;-65
2022/12/08 15:20:21;;;;;;;12.18;5.85;;;23.40;49.70;;;;;;6083673;28;86123;-62
2022/12/08 15:23:22;;;;;;;11.77;5.57;;;23.40;50.60;;;;;;6094210;28;81781;-63
2022/12/08 15:26:22;;;;;;;16.92;5.75;;;23.40;50.00;;;;;;6094714;28;81201;-62
2022/12/08 15:29:23;;;;;;;12.18;4.72;;;23.40;50.70;;;;;;6107885;28;81178;-62
2022/12/08 15:32:24;;;;;;;14.32;5.63;;;23.40;49.90;;;;;;6097059;28;81991;-60
2022/12/08 15:35:24;;;;;;;11.50;5.43;;;23.40;49.50;;;;;;6082251;28;80759;-60
2022/12/08 15:38:25;;;;;;;16.25;6.43;;;23.30;49.40;;;;;;6076645;28;80607;-59
2022/12/08 15:41:25;;;;;;;14.57;6.65;;;23.40;50.20;;;;;;6092674;28;80373;-61